sensor_id;sensor_type;location;lat;lon;timestamp;P1;durP1;ratioP1;P2;durP2;ratioP2
3901;SDS011;1966;49.908;9.156;2022-08-20T00:04:46;10.83;;;9.73;;
3901;SDS011;1966;49.908;9.156;2022-08-20T00:09:46;13.27;;;11.07;;
3901;SDS011;1966;49.908;9.156;2022-08-20T00:14:47;12.17;;;10.93;;
3901;SDS011;1966;49.908;9.156;2022-08-20T00:19:46;11.50;;;10.40;;
3901;SDS011;1966;49.908;9.156;2022-08-20T00:24:46;12.30;;;11.07;;
3901;SDS011;1966;49.908;9.156;2022-08-20T00:29:47;12.80;;;11.50;;
3901;SDS011;1966;49.908;9.156;2022-08-20T00:34:46;13.23;;;11.83;;
3901;SDS011;1966;49.908;9.156;2022-08-20T00:39:46;14.67;;;12.10;;
3901;SDS011;1966;49.908;9.156;2022-08-20T00:44:47;14.37;;;11.57;;
3901;SDS011;1966;49.908;9.156;2022-08-20T00:49:46;13.00;;;11.57;;
3901;SDS011;1966;49.908;9.156;2022-08-20T00:54:47;13.10;;;11.80;;
3901;SDS011;1966;49.908;9.156;2022-08-20T00:59:49;12.33;;;11.03;;
3901;SDS011;1966;49.908;9.156;2022-08-20T01:04:49;13.10;;;11.70;;
3901;SDS011;1966;49.908;9.156;2022-08-20T01:09:49;13.57;;;12.23;;
3901;SDS011;1966;49.908;9.156;2022-08-20T01:14:50;12.30;;;11.10;;
3901;SDS011;1966;49.908;9.156;2022-08-20T01:19:51;13.80;;;12.40;;
3901;SDS011;1966;49.908;9.156;2022-08-20T01:24:54;15.70;;;12.70;;
3901;SDS011;1966;49.908;9.156;2022-08-20T01:29:56;13.63;;;11.83;;
3901;SDS011;1966;49.908;9.156;2022-08-20T01:34:57;13.87;;;11.93;;
3901;SDS011;1966;49.908;9.156;2022-08-20T01:39:56;14.10;;;12.70;;
3901;SDS011;1966;49.908;9.156;2022-08-20T01:44:57;13.87;;;12.37;;
3901;SDS011;1966;49.908;9.156;2022-08-20T01:49:58;19.13;;;12.47;;
3901;SDS011;1966;49.908;9.156;2022-08-20T01:54:58;14.23;;;12.73;;
3901;SDS011;1966;49.908;9.156;2022-08-20T01:59:59;15.60;;;12.10;;
3901;SDS011;1966;49.908;9.156;2022-08-20T02:04:59;14.70;;;13.10;;
3901;SDS011;1966;49.908;9.156;2022-08-20T02:09:58;15.97;;;13.37;;
3901;SDS011;1966;49.908;9.156;2022-08-20T02:14:59;15.70;;;12.73;;
3901;SDS011;1966;49.908;9.156;2022-08-20T02:20:00;17.43;;;12.67;;
3901;SDS011;1966;49.908;9.156;2022-08-20T02:25:00;14.90;;;12.83;;
3901;SDS011;1966;49.908;9.156;2022-08-20T02:30:02;14.37;;;12.70;;
3901;SDS011;1966;49.908;9.156;2022-08-20T02:35:02;20.30;;;11.67;;
3901;SDS011;1966;49.908;9.156;2022-08-20T02:40:03;17.37;;;12.23;;
3901;SDS011;1966;49.908;9.156;2022-08-20T02:45:04;15.83;;;12.97;;
3901;SDS011;1966;49.908;9.156;2022-08-20T02:50:05;14.17;;;12.67;;
3901;SDS011;1966;49.908;9.156;2022-08-20T02:55:05;16.67;;;13.67;;
3901;SDS011;1966;49.908;9.156;2022-08-20T03:00:07;13.53;;;12.10;;
3901;SDS011;1966;49.908;9.156;2022-08-20T03:05:08;14.10;;;12.40;;
3901;SDS011;1966;49.908;9.156;2022-08-20T03:10:08;17.10;;;12.10;;
3901;SDS011;1966;49.908;9.156;2022-08-20T03:15:10;13.73;;;12.00;;
3901;SDS011;1966;49.908;9.156;2022-08-20T03:20:10;13.77;;;12.17;;
3901;SDS011;1966;49.908;9.156;2022-08-20T03:25:10;12.43;;;11.20;;
3901;SDS011;1966;49.908;9.156;2022-08-20T03:30:12;13.37;;;11.57;;
3901;SDS011;1966;49.908;9.156;2022-08-20T03:35:13;15.20;;;12.30;;
3901;SDS011;1966;49.908;9.156;2022-08-20T03:40:16;13.83;;;12.30;;
3901;SDS011;1966;49.908;9.156;2022-08-20T03:45:17;15.27;;;12.70;;
3901;SDS011;1966;49.908;9.156;2022-08-20T03:50:18;13.70;;;12.00;;
3901;SDS011;1966;49.908;9.156;2022-08-20T03:55:19;16.33;;;12.50;;
3901;SDS011;1966;49.908;9.156;2022-08-20T04:00:21;15.73;;;12.57;;
3901;SDS011;1966;49.908;9.156;2022-08-20T04:05:21;13.00;;;11.70;;
3901;SDS011;1966;49.908;9.156;2022-08-20T04:10:21;15.67;;;13.00;;
3901;SDS011;1966;49.908;9.156;2022-08-20T04:15:22;13.60;;;12.00;;
3901;SDS011;1966;49.908;9.156;2022-08-20T04:20:23;15.20;;;12.20;;
3901;SDS011;1966;49.908;9.156;2022-08-20T04:25:23;13.00;;;11.60;;
3901;SDS011;1966;49.908;9.156;2022-08-20T04:30:24;14.57;;;12.73;;
3901;SDS011;1966;49.908;9.156;2022-08-20T04:35:24;12.93;;;11.50;;
3901;SDS011;1966;49.908;9.156;2022-08-20T04:40:24;13.10;;;11.70;;
3901;SDS011;1966;49.908;9.156;2022-08-20T04:45:42;13.57;;;12.17;;
3901;SDS011;1966;49.908;9.156;2022-08-20T04:50:43;12.93;;;11.50;;
3901;SDS011;1966;49.908;9.156;2022-08-20T04:55:44;12.67;;;11.33;;
3901;SDS011;1966;49.908;9.156;2022-08-20T05:05:51;12.67;;;11.37;;
3901;SDS011;1966;49.908;9.156;2022-08-20T05:10:52;13.10;;;11.50;;
3901;SDS011;1966;49.908;9.156;2022-08-20T05:15:51;13.23;;;11.03;;
3901;SDS011;1966;49.908;9.156;2022-08-20T05:20:53;13.20;;;11.03;;
3901;SDS011;1966;49.908;9.156;2022-08-20T05:26:03;12.83;;;10.80;;
3901;SDS011;1966;49.908;9.156;2022-08-20T05:31:05;13.73;;;11.40;;
3901;SDS011;1966;49.908;9.156;2022-08-20T05:36:08;14.83;;;11.33;;
3901;SDS011;1966;49.908;9.156;2022-08-20T05:41:07;12.20;;;10.90;;
3901;SDS011;1966;49.908;9.156;2022-08-20T05:46:07;12.17;;;10.87;;
3901;SDS011;1966;49.908;9.156;2022-08-20T05:51:08;14.57;;;10.57;;
3901;SDS011;1966;49.908;9.156;2022-08-20T05:56:08;12.67;;;11.37;;
3901;SDS011;1966;49.908;9.156;2022-08-20T06:01:08;12.87;;;11.17;;
3901;SDS011;1966;49.908;9.156;2022-08-20T06:06:09;10.90;;;9.80;;
3901;SDS011;1966;49.908;9.156;2022-08-20T06:11:09;11.37;;;10.17;;
3901;SDS011;1966;49.908;9.156;2022-08-20T06:16:09;10.50;;;9.40;;
3901;SDS011;1966;49.908;9.156;2022-08-20T06:21:10;11.73;;;10.53;;
3901;SDS011;1966;49.908;9.156;2022-08-20T06:26:09;11.10;;;10.00;;
3901;SDS011;1966;49.908;9.156;2022-08-20T06:31:09;10.50;;;9.50;;
3901;SDS011;1966;49.908;9.156;2022-08-20T06:36:10;12.30;;;9.90;;
3901;SDS011;1966;49.908;9.156;2022-08-20T06:41:09;14.13;;;9.20;;
3901;SDS011;1966;49.908;9.156;2022-08-20T06:46:09;12.33;;;9.77;;
3901;SDS011;1966;49.908;9.156;2022-08-20T06:51:10;11.40;;;10.17;;
3901;SDS011;1966;49.908;9.156;2022-08-20T06:56:09;10.23;;;9.23;;
3901;SDS011;1966;49.908;9.156;2022-08-20T07:01:09;10.87;;;9.77;;
3901;SDS011;1966;49.908;9.156;2022-08-20T07:06:10;10.53;;;9.53;;
3901;SDS011;1966;49.908;9.156;2022-08-20T07:11:10;12.60;;;11.30;;
3901;SDS011;1966;49.908;9.156;2022-08-20T07:16:10;14.10;;;12.57;;
3901;SDS011;1966;49.908;9.156;2022-08-20T07:21:11;15.30;;;12.80;;
3901;SDS011;1966;49.908;9.156;2022-08-20T07:26:10;14.00;;;11.90;;
3901;SDS011;1966;49.908;9.156;2022-08-20T07:31:10;11.80;;;10.60;;
3901;SDS011;1966;49.908;9.156;2022-08-20T07:36:29;11.67;;;10.47;;
3901;SDS011;1966;49.908;9.156;2022-08-20T07:41:28;10.70;;;9.60;;
3901;SDS011;1966;49.908;9.156;2022-08-20T07:46:28;11.70;;;9.40;;
3901;SDS011;1966;49.908;9.156;2022-08-20T07:51:29;10.63;;;9.63;;
3901;SDS011;1966;49.908;9.156;2022-08-20T07:56:29;14.97;;;10.40;;
3901;SDS011;1966;49.908;9.156;2022-08-20T08:01:30;12.43;;;10.47;;
3901;SDS011;1966;49.908;9.156;2022-08-20T08:06:31;11.60;;;10.20;;
3901;SDS011;1966;49.908;9.156;2022-08-20T08:11:31;20.70;;;12.10;;
3901;SDS011;1966;49.908;9.156;2022-08-20T08:16:31;16.20;;;13.33;;
3901;SDS011;1966;49.908;9.156;2022-08-20T08:21:33;13.30;;;11.90;;
3901;SDS011;1966;49.908;9.156;2022-08-20T08:26:32;13.40;;;11.77;;
3901;SDS011;1966;49.908;9.156;2022-08-20T08:31:32;12.90;;;11.00;;
3901;SDS011;1966;49.908;9.156;2022-08-20T08:36:33;12.57;;;10.60;;
3901;SDS011;1966;49.908;9.156;2022-08-20T08:41:34;14.77;;;11.80;;
3901;SDS011;1966;49.908;9.156;2022-08-20T08:46:35;14.30;;;11.20;;
3901;SDS011;1966;49.908;9.156;2022-08-20T08:51:40;14.30;;;10.90;;
3901;SDS011;1966;49.908;9.156;2022-08-20T08:56:40;12.97;;;10.07;;
3901;SDS011;1966;49.908;9.156;2022-08-20T09:01:42;13.63;;;11.03;;
3901;SDS011;1966;49.908;9.156;2022-08-20T09:06:44;11.87;;;10.00;;
3901;SDS011;1966;49.908;9.156;2022-08-20T09:11:45;11.73;;;9.63;;
3901;SDS011;1966;49.908;9.156;2022-08-20T09:16:45;10.80;;;8.83;;
3901;SDS011;1966;49.908;9.156;2022-08-20T09:21:46;11.80;;;8.00;;
3901;SDS011;1966;49.908;9.156;2022-08-20T09:26:46;8.33;;;7.53;;
3901;SDS011;1966;49.908;9.156;2022-08-20T09:31:45;9.03;;;7.10;;
3901;SDS011;1966;49.908;9.156;2022-08-20T09:36:46;7.67;;;6.97;;
3901;SDS011;1966;49.908;9.156;2022-08-20T09:41:46;10.27;;;7.60;;
3901;SDS011;1966;49.908;9.156;2022-08-20T09:46:45;9.07;;;8.17;;
3901;SDS011;1966;49.908;9.156;2022-08-20T09:51:46;9.47;;;8.47;;
3901;SDS011;1966;49.908;9.156;2022-08-20T09:56:46;9.93;;;9.00;;
3901;SDS011;1966;49.908;9.156;2022-08-20T10:01:46;10.97;;;9.20;;
3901;SDS011;1966;49.908;9.156;2022-08-20T10:06:47;11.20;;;9.93;;
3901;SDS011;1966;49.908;9.156;2022-08-20T10:11:46;10.13;;;9.13;;
3901;SDS011;1966;49.908;9.156;2022-08-20T10:16:47;9.13;;;8.23;;
3901;SDS011;1966;49.908;9.156;2022-08-20T10:21:54;8.27;;;7.40;;
3901;SDS011;1966;49.908;9.156;2022-08-20T10:26:54;8.73;;;7.83;;
3901;SDS011;1966;49.908;9.156;2022-08-20T10:31:54;8.90;;;7.23;;
3901;SDS011;1966;49.908;9.156;2022-08-20T10:36:56;6.70;;;6.20;;
3901;SDS011;1966;49.908;9.156;2022-08-20T10:41:56;7.07;;;6.50;;
3901;SDS011;1966;49.908;9.156;2022-08-20T10:46:55;5.53;;;5.13;;
3901;SDS011;1966;49.908;9.156;2022-08-20T10:51:56;5.37;;;4.97;;
3901;SDS011;1966;49.908;9.156;2022-08-20T10:56:59;5.50;;;5.10;;
3901;SDS011;1966;49.908;9.156;2022-08-20T11:01:59;4.57;;;2.90;;
3901;SDS011;1966;49.908;9.156;2022-08-20T11:07:09;4.30;;;2.90;;
3901;SDS011;1966;49.908;9.156;2022-08-20T11:12:09;6.50;;;2.77;;
3901;SDS011;1966;49.908;9.156;2022-08-20T11:17:09;8.10;;;5.00;;
3901;SDS011;1966;49.908;9.156;2022-08-20T11:22:10;4.80;;;4.37;;
3901;SDS011;1966;49.908;9.156;2022-08-20T11:27:10;5.90;;;3.93;;
3901;SDS011;1966;49.908;9.156;2022-08-20T11:32:12;3.90;;;3.50;;
3901;SDS011;1966;49.908;9.156;2022-08-20T11:37:13;5.60;;;3.33;;
3901;SDS011;1966;49.908;9.156;2022-08-20T11:42:14;3.23;;;3.03;;
3901;SDS011;1966;49.908;9.156;2022-08-20T11:47:18;2.20;;;2.10;;
3901;SDS011;1966;49.908;9.156;2022-08-20T11:52:19;2.77;;;2.50;;
3901;SDS011;1966;49.908;9.156;2022-08-20T11:57:20;2.13;;;2.03;;
3901;SDS011;1966;49.908;9.156;2022-08-20T12:02:20;3.90;;;2.70;;
3901;SDS011;1966;49.908;9.156;2022-08-20T12:07:22;3.97;;;3.05;;
3901;SDS011;1966;49.908;9.156;2022-08-20T12:12:22;3.23;;;3.03;;
3901;SDS011;1966;49.908;9.156;2022-08-20T12:17:23;3.57;;;3.37;;
3901;SDS011;1966;49.908;9.156;2022-08-20T12:22:24;3.10;;;2.90;;
3901;SDS011;1966;49.908;9.156;2022-08-20T12:27:24;3.13;;;2.90;;
3901;SDS011;1966;49.908;9.156;2022-08-20T12:32:25;3.00;;;2.80;;
3901;SDS011;1966;49.908;9.156;2022-08-20T12:37:28;2.72;;;2.53;;
3901;SDS011;1966;49.908;9.156;2022-08-20T12:42:28;1.90;;;1.80;;
3901;SDS011;1966;49.908;9.156;2022-08-20T12:47:29;1.80;;;1.80;;
3901;SDS011;1966;49.908;9.156;2022-08-20T12:52:31;2.00;;;1.90;;
3901;SDS011;1966;49.908;9.156;2022-08-20T12:57:32;2.30;;;2.10;;
3901;SDS011;1966;49.908;9.156;2022-08-20T13:02:32;1.80;;;1.70;;
3901;SDS011;1966;49.908;9.156;2022-08-20T13:07:33;1.85;;;1.75;;
3901;SDS011;1966;49.908;9.156;2022-08-20T13:12:32;1.70;;;1.70;;
3901;SDS011;1966;49.908;9.156;2022-08-20T13:17:32;1.50;;;1.50;;
3901;SDS011;1966;49.908;9.156;2022-08-20T13:22:33;1.35;;;1.35;;
3901;SDS011;1966;49.908;9.156;2022-08-20T13:27:33;1.67;;;1.58;;
3901;SDS011;1966;49.908;9.156;2022-08-20T13:32:35;1.70;;;1.60;;
3901;SDS011;1966;49.908;9.156;2022-08-20T13:37:36;1.40;;;1.40;;
3901;SDS011;1966;49.908;9.156;2022-08-20T13:42:37;1.90;;;1.33;;
3901;SDS011;1966;49.908;9.156;2022-08-20T13:47:39;1.67;;;1.67;;
3901;SDS011;1966;49.908;9.156;2022-08-20T13:52:41;1.40;;;1.40;;
3901;SDS011;1966;49.908;9.156;2022-08-20T13:57:41;1.60;;;1.60;;
3901;SDS011;1966;49.908;9.156;2022-08-20T14:02:41;1.30;;;1.30;;
3901;SDS011;1966;49.908;9.156;2022-08-20T14:07:42;1.55;;;1.55;;
3901;SDS011;1966;49.908;9.156;2022-08-20T14:12:42;1.45;;;1.33;;
3901;SDS011;1966;49.908;9.156;2022-08-20T14:17:42;1.60;;;1.50;;
3901;SDS011;1966;49.908;9.156;2022-08-20T14:22:48;1.30;;;1.30;;
3901;SDS011;1966;49.908;9.156;2022-08-20T14:27:48;1.35;;;1.30;;
3901;SDS011;1966;49.908;9.156;2022-08-20T14:32:47;1.48;;;1.38;;
3901;SDS011;1966;49.908;9.156;2022-08-20T14:37:49;1.40;;;1.40;;
3901;SDS011;1966;49.908;9.156;2022-08-20T14:42:50;1.13;;;1.13;;
3901;SDS011;1966;49.908;9.156;2022-08-20T14:47:50;1.20;;;1.20;;
3901;SDS011;1966;49.908;9.156;2022-08-20T14:52:53;1.60;;;1.50;;
3901;SDS011;1966;49.908;9.156;2022-08-20T14:57:53;2.25;;;1.40;;
3901;SDS011;1966;49.908;9.156;2022-08-20T15:02:53;1.60;;;1.50;;
3901;SDS011;1966;49.908;9.156;2022-08-20T15:07:54;1.40;;;1.40;;
3901;SDS011;1966;49.908;9.156;2022-08-20T15:12:54;1.15;;;1.15;;
3901;SDS011;1966;49.908;9.156;2022-08-20T15:17:54;2.05;;;1.30;;
3901;SDS011;1966;49.908;9.156;2022-08-20T15:22:56;1.40;;;1.30;;
3901;SDS011;1966;49.908;9.156;2022-08-20T15:27:55;1.63;;;1.52;;
3901;SDS011;1966;49.908;9.156;2022-08-20T15:32:55;1.67;;;1.58;;
3901;SDS011;1966;49.908;9.156;2022-08-20T15:37:57;1.55;;;1.55;;
3901;SDS011;1966;49.908;9.156;2022-08-20T15:42:57;1.58;;;1.48;;
3901;SDS011;1966;49.908;9.156;2022-08-20T15:47:58;1.88;;;1.77;;
3901;SDS011;1966;49.908;9.156;2022-08-20T15:53:02;2.08;;;1.98;;
3901;SDS011;1966;49.908;9.156;2022-08-20T15:58:05;2.33;;;1.85;;
3901;SDS011;1966;49.908;9.156;2022-08-20T16:03:11;6.00;;;4.77;;
3901;SDS011;1966;49.908;9.156;2022-08-20T16:08:22;3.27;;;3.03;;
3901;SDS011;1966;49.908;9.156;2022-08-20T16:13:29;2.80;;;2.50;;
3901;SDS011;1966;49.908;9.156;2022-08-20T16:18:30;3.50;;;3.07;;
3901;SDS011;1966;49.908;9.156;2022-08-20T16:23:32;3.30;;;2.83;;
3901;SDS011;1966;49.908;9.156;2022-08-20T16:28:34;2.27;;;2.13;;
3901;SDS011;1966;49.908;9.156;2022-08-20T16:33:40;2.10;;;2.00;;
3901;SDS011;1966;49.908;9.156;2022-08-20T16:38:44;2.10;;;2.00;;
3901;SDS011;1966;49.908;9.156;2022-08-20T16:43:48;3.33;;;3.00;;
3901;SDS011;1966;49.908;9.156;2022-08-20T16:48:49;2.57;;;2.37;;
3901;SDS011;1966;49.908;9.156;2022-08-20T16:53:53;1.90;;;1.80;;
3901;SDS011;1966;49.908;9.156;2022-08-20T16:58:52;2.17;;;1.97;;
3901;SDS011;1966;49.908;9.156;2022-08-20T17:03:52;2.07;;;1.97;;
3901;SDS011;1966;49.908;9.156;2022-08-20T17:08:52;2.13;;;1.90;;
3901;SDS011;1966;49.908;9.156;2022-08-20T17:14:02;2.10;;;2.00;;
3901;SDS011;1966;49.908;9.156;2022-08-20T17:19:07;6.57;;;2.30;;
3901;SDS011;1966;49.908;9.156;2022-08-20T17:24:09;2.70;;;2.30;;
3901;SDS011;1966;49.908;9.156;2022-08-20T17:29:13;2.30;;;2.10;;
3901;SDS011;1966;49.908;9.156;2022-08-20T17:34:14;2.10;;;2.00;;
3901;SDS011;1966;49.908;9.156;2022-08-20T17:39:15;2.27;;;2.17;;
3901;SDS011;1966;49.908;9.156;2022-08-20T17:44:19;2.03;;;1.93;;
3901;SDS011;1966;49.908;9.156;2022-08-20T17:49:20;2.17;;;2.07;;
3901;SDS011;1966;49.908;9.156;2022-08-20T17:54:21;4.07;;;3.67;;
3901;SDS011;1966;49.908;9.156;2022-08-20T17:59:24;3.70;;;3.40;;
3901;SDS011;1966;49.908;9.156;2022-08-20T18:04:25;3.53;;;3.10;;
3901;SDS011;1966;49.908;9.156;2022-08-20T18:09:26;3.20;;;2.90;;
3901;SDS011;1966;49.908;9.156;2022-08-20T18:14:36;7.80;;;3.80;;
3901;SDS011;1966;49.908;9.156;2022-08-20T18:19:45;4.40;;;3.70;;
3901;SDS011;1966;49.908;9.156;2022-08-20T18:24:52;4.00;;;3.43;;
3901;SDS011;1966;49.908;9.156;2022-08-20T18:29:56;4.90;;;3.73;;
3901;SDS011;1966;49.908;9.156;2022-08-20T18:35:07;4.13;;;3.73;;
3901;SDS011;1966;49.908;9.156;2022-08-20T18:40:15;5.60;;;4.20;;
3901;SDS011;1966;49.908;9.156;2022-08-20T18:45:27;6.83;;;6.20;;
3901;SDS011;1966;49.908;9.156;2022-08-20T18:50:29;15.40;;;13.17;;
3901;SDS011;1966;49.908;9.156;2022-08-20T18:55:30;6.10;;;5.50;;
3901;SDS011;1966;49.908;9.156;2022-08-20T19:00:34;6.37;;;4.87;;
3901;SDS011;1966;49.908;9.156;2022-08-20T19:05:37;4.50;;;4.10;;
3901;SDS011;1966;49.908;9.156;2022-08-20T19:10:41;4.30;;;3.90;;
3901;SDS011;1966;49.908;9.156;2022-08-20T19:15:47;4.00;;;3.70;;
3901;SDS011;1966;49.908;9.156;2022-08-20T19:20:49;4.23;;;3.93;;
3901;SDS011;1966;49.908;9.156;2022-08-20T19:25:52;4.97;;;4.07;;
3901;SDS011;1966;49.908;9.156;2022-08-20T19:30:54;4.70;;;4.13;;
3901;SDS011;1966;49.908;9.156;2022-08-20T19:35:54;6.63;;;5.30;;
3901;SDS011;1966;49.908;9.156;2022-08-20T19:40:53;5.47;;;4.97;;
3901;SDS011;1966;49.908;9.156;2022-08-20T19:45:54;6.23;;;4.43;;
3901;SDS011;1966;49.908;9.156;2022-08-20T19:50:56;6.43;;;4.67;;
3901;SDS011;1966;49.908;9.156;2022-08-20T19:56:00;4.47;;;4.07;;
3901;SDS011;1966;49.908;9.156;2022-08-20T20:01:02;4.90;;;4.50;;
3901;SDS011;1966;49.908;9.156;2022-08-20T20:06:07;4.03;;;3.73;;
3901;SDS011;1966;49.908;9.156;2022-08-20T20:11:07;5.73;;;4.83;;
3901;SDS011;1966;49.908;9.156;2022-08-20T20:16:09;6.90;;;4.57;;
3901;SDS011;1966;49.908;9.156;2022-08-20T20:21:12;6.40;;;4.47;;
3901;SDS011;1966;49.908;9.156;2022-08-20T20:26:14;5.87;;;4.90;;
3901;SDS011;1966;49.908;9.156;2022-08-20T20:31:19;4.67;;;4.27;;
3901;SDS011;1966;49.908;9.156;2022-08-20T20:36:29;5.77;;;5.23;;
3901;SDS011;1966;49.908;9.156;2022-08-20T20:41:29;5.10;;;4.60;;
3901;SDS011;1966;49.908;9.156;2022-08-20T20:46:31;14.30;;;4.70;;
3901;SDS011;1966;49.908;9.156;2022-08-20T20:51:32;5.07;;;4.57;;
3901;SDS011;1966;49.908;9.156;2022-08-20T20:56:32;5.00;;;4.30;;
3901;SDS011;1966;49.908;9.156;2022-08-20T21:01:34;5.43;;;4.93;;
3901;SDS011;1966;49.908;9.156;2022-08-20T21:06:33;5.30;;;4.80;;
3901;SDS011;1966;49.908;9.156;2022-08-20T21:11:33;5.80;;;5.30;;
3901;SDS011;1966;49.908;9.156;2022-08-20T21:16:34;7.27;;;4.87;;
3901;SDS011;1966;49.908;9.156;2022-08-20T21:21:33;10.13;;;6.17;;
3901;SDS011;1966;49.908;9.156;2022-08-20T21:26:34;8.40;;;5.90;;
3901;SDS011;1966;49.908;9.156;2022-08-20T21:31:37;8.00;;;5.90;;
3901;SDS011;1966;49.908;9.156;2022-08-20T21:36:38;7.70;;;5.60;;
3901;SDS011;1966;49.908;9.156;2022-08-20T21:41:38;10.73;;;6.53;;
3901;SDS011;1966;49.908;9.156;2022-08-20T21:46:39;5.90;;;5.30;;
3901;SDS011;1966;49.908;9.156;2022-08-20T21:51:39;7.43;;;5.80;;
3901;SDS011;1966;49.908;9.156;2022-08-20T21:56:38;7.23;;;6.53;;
3901;SDS011;1966;49.908;9.156;2022-08-20T22:01:39;6.43;;;5.93;;
3901;SDS011;1966;49.908;9.156;2022-08-20T22:06:40;6.60;;;5.97;;
3901;SDS011;1966;49.908;9.156;2022-08-20T22:11:40;9.80;;;6.50;;
3901;SDS011;1966;49.908;9.156;2022-08-20T22:16:41;10.00;;;6.43;;
3901;SDS011;1966;49.908;9.156;2022-08-20T22:21:40;7.87;;;6.43;;
3901;SDS011;1966;49.908;9.156;2022-08-20T22:26:40;9.10;;;6.90;;
3901;SDS011;1966;49.908;9.156;2022-08-20T22:31:41;7.80;;;7.00;;
3901;SDS011;1966;49.908;9.156;2022-08-20T22:36:41;9.53;;;6.50;;
3901;SDS011;1966;49.908;9.156;2022-08-20T22:41:41;8.90;;;6.63;;
3901;SDS011;1966;49.908;9.156;2022-08-20T22:46:42;10.80;;;7.20;;
3901;SDS011;1966;49.908;9.156;2022-08-20T22:51:42;8.07;;;7.23;;
3901;SDS011;1966;49.908;9.156;2022-08-20T22:56:42;8.20;;;6.83;;
3901;SDS011;1966;49.908;9.156;2022-08-20T23:01:43;7.60;;;6.67;;
3901;SDS011;1966;49.908;9.156;2022-08-20T23:06:42;8.50;;;7.70;;
3901;SDS011;1966;49.908;9.156;2022-08-20T23:11:42;8.43;;;7.53;;
3901;SDS011;1966;49.908;9.156;2022-08-20T23:16:46;11.30;;;7.30;;
3901;SDS011;1966;49.908;9.156;2022-08-20T23:21:45;9.30;;;7.30;;
3901;SDS011;1966;49.908;9.156;2022-08-20T23:26:45;11.37;;;7.50;;
3901;SDS011;1966;49.908;9.156;2022-08-20T23:31:46;9.40;;;8.20;;
3901;SDS011;1966;49.908;9.156;2022-08-20T23:36:46;7.90;;;7.10;;
3901;SDS011;1966;49.908;9.156;2022-08-20T23:41:46;8.10;;;7.30;;
3901;SDS011;1966;49.908;9.156;2022-08-20T23:46:46;11.00;;;8.57;;
3901;SDS011;1966;49.908;9.156;2022-08-20T23:51:46;9.27;;;8.30;;
3901;SDS011;1966;49.908;9.156;2022-08-20T23:56:46;12.70;;;9.27;;
